Terminal Aerodrome Forecast
Issued by NWS

Home | Current Version | Previous Version | Graphics & Text | Print | Product List | Glossary On
Versions: 1 2 3 4 5 6 7 8 9 10 11 12 13 14
646
FTUS45 KGGW 090520
TAFSDY
TAF
KSDY 090520Z 0906/1006 VRB03KT P6SM FEW020
     FM092300 VRB05KT P6SM BKN035=

USA.gov is the U.S. government's official web portal to all federal, state and local government web resources and services.